Time;durP1;ratioP1;P1;durP2;ratioP2;P2;SDS_P1;SDS_P2;PMS_P1;PMS_P2;Temp;Humidity;BMP_temperature;BMP_pressure;BME280_temperature;BME280_humidity;BME280_pressure;Samples;Min_cycle;Max_cycle;Signal;HPM_P1;HPM_P2
2022/08/10 00:01:06;;;;;;;58.93;4.50;;;;;;;;;;5071654;28;20478;-66
2022/08/10 00:03:33;;;;;;;60.00;4.37;;;;;;;;;;5071644;28;20449;-66
2022/08/10 00:06:01;;;;;;;59.30;4.23;;;;;;;;;;5071744;28;20475;-66
2022/08/10 00:08:28;;;;;;;59.23;4.30;;;;;;;;;;5071627;28;20447;-66
2022/08/10 00:10:56;;;;;;;60.30;4.50;;;;;;;;;;5071462;28;20493;-66
2022/08/10 00:13:24;;;;;;;59.90;4.37;;;;;;;;;;5071440;28;20535;-66
2022/08/10 00:15:51;;;;;;;59.80;4.40;;;;;;;;;;5071783;28;20450;-66
2022/08/10 00:18:18;;;;;;;59.97;4.10;;;;;;;;;;5071596;28;20440;-66
2022/08/10 00:20:45;;;;;;;60.10;4.60;;;;;;;;;;5071343;28;20463;-66
2022/08/10 00:23:14;;;;;;;59.60;4.13;;;;;;;;;;5071494;28;20482;-66
2022/08/10 00:25:41;;;;;;;59.97;4.70;;;;;;;;;;5071314;28;20490;-66
2022/08/10 00:28:08;;;;;;;59.30;4.33;;;;;;;;;;5071299;28;20451;-66
2022/08/10 00:30:35;;;;;;;59.90;4.13;;;;;;;;;;5071237;28;20467;-66
2022/08/10 00:33:02;;;;;;;60.33;4.73;;;;;;;;;;5071295;28;20447;-66
2022/08/10 00:35:29;;;;;;;59.70;4.63;;;;;;;;;;5071307;28;20447;-66
2022/08/10 00:37:56;;;;;;;59.50;4.10;;;;;;;;;;5071312;28;20451;-66
2022/08/10 00:40:25;;;;;;;59.87;3.70;;;;;;;;;;5070832;28;20939;-66
2022/08/10 00:42:52;;;;;;;59.60;4.17;;;;;;;;;;5071241;28;20443;-66
2022/08/10 00:45:19;;;;;;;59.33;3.87;;;;;;;;;;5071211;28;20497;-66
2022/08/10 00:47:46;;;;;;;59.67;4.00;;;;;;;;;;5071331;28;20473;-66
2022/08/10 00:50:16;;;;;;;61.37;3.87;;;;;;;;;;5071063;28;20454;-66
2022/08/10 00:52:44;;;;;;;59.47;3.90;;;;;;;;;;5071156;28;20466;-66
2022/08/10 00:55:11;;;;;;;58.97;3.67;;;;;;;;;;5071166;28;20828;-66
2022/08/10 00:57:40;;;;;;;59.37;4.10;;;;;;;;;;5071385;28;20444;-66
2022/08/10 01:00:08;;;;;;;59.67;4.20;;;;;;;;;;5072597;28;20630;-66
2022/08/10 01:02:35;;;;;;;59.40;3.70;;;;;;;;;;5074844;28;20904;-66
2022/08/10 01:05:04;;;;;;;59.20;3.97;;;;;;;;;;5074668;28;20450;-66
2022/08/10 01:07:37;;;;;;;60.23;4.00;;;;;;;;;;5074440;28;20491;-66
2022/08/10 01:10:11;;;;;;;59.63;3.70;;;;;;;;;;5074452;28;20451;-66
2022/08/10 01:12:42;;;;;;;60.87;4.00;;;;;;;;;;5074521;28;20463;-66
2022/08/10 01:15:12;;;;;;;59.30;3.93;;;;;;;;;;5074666;28;20451;-66
2022/08/10 01:17:43;;;;;;;60.53;3.97;;;;;;;;;;5074458;28;20454;-66
2022/08/10 01:20:17;;;;;;;58.33;3.50;;;;;;;;;;5074103;28;20455;-66
2022/08/10 01:22:59;;;;;;;59.57;3.33;;;;;;;;;;5074563;28;20451;-66
2022/08/10 01:25:37;;;;;;;60.07;4.07;;;;;;;;;;5041185;28;20447;-66
2022/08/10 01:28:09;;;;;;;59.27;3.87;;;;;;;;;;5074230;28;20456;-66
2022/08/10 01:30:38;;;;;;;59.83;3.50;;;;;;;;;;5073929;28;20478;-66
2022/08/10 01:33:09;;;;;;;60.20;4.20;;;;;;;;;;5074350;28;20852;-66
2022/08/10 01:35:38;;;;;;;59.50;3.90;;;;;;;;;;5074338;28;20812;-66
2022/08/10 01:38:07;;;;;;;59.60;4.30;;;;;;;;;;5074082;28;20450;-66
2022/08/10 01:40:36;;;;;;;58.97;3.17;;;;;;;;;;5073779;28;20473;-66
2022/08/10 01:43:05;;;;;;;59.30;3.80;;;;;;;;;;5073890;28;20943;-66
2022/08/10 01:45:33;;;;;;;59.47;3.67;;;;;;;;;;5073895;28;20557;-66
2022/08/10 01:50:50;;;;;;;59.30;3.70;;;;;;;;;;5073641;28;20447;-66
2022/08/10 01:53:21;;;;;;;61.10;5.10;;;;;;;;;;5073690;28;20980;-66
2022/08/10 01:55:49;;;;;;;59.60;4.00;;;;;;;;;;5073789;28;20450;-66
2022/08/10 01:58:18;;;;;;;60.97;4.53;;;;;;;;;;5074033;28;20459;-66
2022/08/10 02:00:46;;;;;;;60.60;4.40;;;;;;;;;;5073300;28;20489;-66
2022/08/10 02:03:17;;;;;;;59.53;4.13;;;;;;;;;;5073806;28;20449;-66
2022/08/10 02:05:46;;;;;;;59.30;3.93;;;;;;;;;;5073755;28;20460;-66
2022/08/10 02:08:14;;;;;;;59.53;3.57;;;;;;;;;;5073723;28;20868;-66
2022/08/10 02:10:43;;;;;;;59.90;3.83;;;;;;;;;;5073286;28;20499;-66
2022/08/10 02:13:10;;;;;;;60.67;4.30;;;;;;;;;;5073467;28;20454;-66
2022/08/10 02:15:40;;;;;;;59.93;4.53;;;;;;;;;;5073661;28;20451;-66
2022/08/10 02:18:07;;;;;;;60.10;4.80;;;;;;;;;;5073305;28;20537;-66
2022/08/10 02:20:37;;;;;;;59.20;4.10;;;;;;;;;;5073063;28;20453;-66
2022/08/10 02:23:10;;;;;;;58.70;3.20;;;;;;;;;;5073150;28;20935;-66
2022/08/10 02:25:38;;;;;;;61.53;4.40;;;;;;;;;;5073220;28;20793;-66
2022/08/10 02:28:06;;;;;;;60.57;4.90;;;;;;;;;;5072929;28;21098;-66
2022/08/10 02:30:33;;;;;;;60.27;4.43;;;;;;;;;;5072944;28;20443;-66
2022/08/10 02:33:01;;;;;;;59.00;3.37;;;;;;;;;;5073242;28;20447;-66
2022/08/10 02:35:29;;;;;;;59.80;3.90;;;;;;;;;;5073072;28;20863;-66
2022/08/10 02:37:59;;;;;;;59.50;3.83;;;;;;;;;;5072953;28;20443;-66
2022/08/10 02:40:27;;;;;;;59.17;3.53;;;;;;;;;;5072485;28;20444;-66
2022/08/10 02:42:58;;;;;;;59.20;3.57;;;;;;;;;;5072808;28;20471;-66
2022/08/10 02:45:29;;;;;;;59.10;3.63;;;;;;;;;;5073088;28;20451;-66
2022/08/10 02:47:59;;;;;;;59.40;3.50;;;;;;;;;;5072744;28;20489;-66
2022/08/10 02:50:27;;;;;;;64.97;4.70;;;;;;;;;;5072500;28;20478;-66
2022/08/10 02:52:58;;;;;;;59.70;4.43;;;;;;;;;;5072570;28;20467;-66
2022/08/10 02:55:30;;;;;;;59.67;4.30;;;;;;;;;;5072691;28;20455;-66
2022/08/10 02:57:59;;;;;;;60.00;4.07;;;;;;;;;;5072586;28;20438;-66
2022/08/10 03:00:26;;;;;;;59.23;3.77;;;;;;;;;;5072289;28;20450;-66
2022/08/10 03:02:55;;;;;;;59.47;4.07;;;;;;;;;;5072367;28;20965;-66
2022/08/10 03:05:22;;;;;;;59.37;3.87;;;;;;;;;;5072315;28;20443;-66
2022/08/10 03:07:52;;;;;;;59.47;3.63;;;;;;;;;;5072575;28;20509;-66
2022/08/10 03:10:21;;;;;;;59.70;4.00;;;;;;;;;;5072135;28;20453;-66
2022/08/10 03:12:51;;;;;;;61.47;4.10;;;;;;;;;;5072430;28;20443;-66
2022/08/10 03:15:20;;;;;;;59.70;4.60;;;;;;;;;;5072426;28;20439;-66
2022/08/10 03:17:47;;;;;;;59.83;4.10;;;;;;;;;;5072223;28;20808;-66
2022/08/10 03:20:15;;;;;;;59.67;4.10;;;;;;;;;;5072089;28;20450;-66
2022/08/10 03:22:43;;;;;;;63.77;4.30;;;;;;;;;;5071929;28;20493;-66
2022/08/10 03:25:12;;;;;;;60.53;4.50;;;;;;;;;;5072269;28;20459;-66
2022/08/10 03:27:40;;;;;;;59.57;4.50;;;;;;;;;;5072063;28;20483;-66
2022/08/10 03:30:10;;;;;;;60.20;4.30;;;;;;;;;;5071747;28;20454;-66
2022/08/10 03:32:37;;;;;;;59.80;3.53;;;;;;;;;;5071909;28;20472;-66
2022/08/10 03:35:06;;;;;;;59.77;4.10;;;;;;;;;;5071914;28;20447;-66
2022/08/10 03:37:33;;;;;;;60.00;4.30;;;;;;;;;;5072144;28;20444;-66
2022/08/10 03:40:00;;;;;;;60.10;4.40;;;;;;;;;;5071730;28;20450;-66
2022/08/10 03:42:28;;;;;;;60.70;4.33;;;;;;;;;;5071848;28;20999;-66
2022/08/10 03:44:55;;;;;;;60.43;4.17;;;;;;;;;;5071894;28;20804;-66
2022/08/10 03:47:24;;;;;;;59.63;4.80;;;;;;;;;;5072025;28;20509;-66
2022/08/10 03:49:51;;;;;;;60.23;4.33;;;;;;;;;;5071654;28;20454;-66
2022/08/10 03:52:19;;;;;;;59.47;4.27;;;;;;;;;;5071789;28;20478;-66
2022/08/10 03:54:50;;;;;;;61.27;4.50;;;;;;;;;;5071766;28;20443;-66
2022/08/10 03:57:17;;;;;;;60.10;4.20;;;;;;;;;;5072137;28;20434;-66
2022/08/10 03:59:45;;;;;;;59.80;4.47;;;;;;;;;;5071660;28;20576;-66
2022/08/10 04:02:12;;;;;;;59.50;4.00;;;;;;;;;;5071832;28;20475;-66
2022/08/10 04:04:40;;;;;;;61.07;4.03;;;;;;;;;;5071824;28;20447;-66
2022/08/10 04:07:08;;;;;;;59.90;4.40;;;;;;;;;;5071798;28;20823;-66
2022/08/10 04:09:38;;;;;;;60.77;4.80;;;;;;;;;;5071318;28;20454;-66
2022/08/10 04:12:05;;;;;;;60.40;5.60;;;;;;;;;;5071396;28;20971;-66
2022/08/10 04:14:33;;;;;;;60.37;4.57;;;;;;;;;;5071870;28;20447;-66
2022/08/10 04:17:00;;;;;;;59.10;3.73;;;;;;;;;;5071733;28;20825;-66
2022/08/10 04:19:28;;;;;;;59.30;3.80;;;;;;;;;;5071259;28;20452;-66
2022/08/10 04:22:00;;;;;;;60.60;4.60;;;;;;;;;;5071552;28;20471;-66
2022/08/10 04:24:28;;;;;;;59.67;4.20;;;;;;;;;;5071577;28;20456;-66
2022/08/10 04:26:55;;;;;;;59.60;4.43;;;;;;;;;;5071371;28;20490;-66
2022/08/10 04:29:22;;;;;;;61.90;5.13;;;;;;;;;;5071307;28;20454;-66
2022/08/10 04:31:50;;;;;;;61.80;5.63;;;;;;;;;;5071350;28;20471;-66
2022/08/10 04:34:17;;;;;;;59.60;4.33;;;;;;;;;;5071867;28;20457;-66
2022/08/10 04:36:44;;;;;;;62.80;5.30;;;;;;;;;;5075242;28;20443;-66
2022/08/10 04:39:13;;;;;;;60.67;4.43;;;;;;;;;;5074821;28;20447;-66
2022/08/10 04:41:40;;;;;;;59.47;4.70;;;;;;;;;;5075112;28;20478;-66
2022/08/10 04:44:08;;;;;;;60.57;4.20;;;;;;;;;;5075287;28;20449;-66
2022/08/10 04:46:35;;;;;;;59.60;3.70;;;;;;;;;;5074952;28;20447;-66
2022/08/10 04:49:03;;;;;;;60.13;4.67;;;;;;;;;;5074633;28;20443;-66
2022/08/10 04:51:30;;;;;;;60.40;4.20;;;;;;;;;;5074725;28;20475;-66
2022/08/10 04:53:57;;;;;;;61.10;4.77;;;;;;;;;;5075214;28;20810;-66
2022/08/10 04:56:25;;;;;;;60.17;4.17;;;;;;;;;;5074826;28;20542;-66
2022/08/10 04:58:52;;;;;;;59.50;4.07;;;;;;;;;;5074683;28;20444;-66
2022/08/10 05:01:19;;;;;;;63.77;4.80;;;;;;;;;;5074881;28;20542;-66
2022/08/10 05:03:47;;;;;;;59.57;3.80;;;;;;;;;;5074743;28;20469;-66
2022/08/10 05:06:14;;;;;;;60.70;4.30;;;;;;;;;;5074663;28;20453;-66
2022/08/10 05:08:41;;;;;;;60.20;4.20;;;;;;;;;;5074516;28;20479;-66
2022/08/10 05:11:08;;;;;;;62.33;4.10;;;;;;;;;;5074751;28;20838;-66
2022/08/10 05:13:36;;;;;;;61.17;5.17;;;;;;;;;;5074545;28;20454;-66
2022/08/10 05:16:03;;;;;;;60.00;4.43;;;;;;;;;;5074647;28;20534;-66
2022/08/10 05:18:31;;;;;;;60.37;4.63;;;;;;;;;;5074208;28;20939;-66
2022/08/10 05:20:58;;;;;;;59.67;4.10;;;;;;;;;;5074193;28;20468;-66
2022/08/10 05:23:25;;;;;;;60.07;4.17;;;;;;;;;;5074332;28;20939;-66
2022/08/10 05:25:52;;;;;;;60.20;4.77;;;;;;;;;;5074519;28;20453;-66
2022/08/10 05:28:19;;;;;;;60.37;4.87;;;;;;;;;;5074077;28;20498;-66
2022/08/10 05:30:48;;;;;;;59.33;4.30;;;;;;;;;;5073828;28;20467;-66
2022/08/10 05:33:15;;;;;;;59.40;3.77;;;;;;;;;;5073951;28;20505;-66
2022/08/10 05:35:42;;;;;;;59.50;3.77;;;;;;;;;;5074400;28;20447;-66
2022/08/10 05:38:10;;;;;;;60.80;4.40;;;;;;;;;;5074228;28;20439;-66
2022/08/10 05:40:38;;;;;;;60.23;4.50;;;;;;;;;;5073918;28;20494;-66
2022/08/10 05:43:05;;;;;;;59.40;4.17;;;;;;;;;;5074063;28;20443;-66
2022/08/10 05:45:33;;;;;;;59.23;3.97;;;;;;;;;;5073773;28;20860;-66
2022/08/10 05:48:01;;;;;;;60.40;4.00;;;;;;;;;;5073650;28;20578;-66
2022/08/10 05:50:29;;;;;;;59.57;4.00;;;;;;;;;;5073560;28;20845;-66
2022/08/10 05:52:57;;;;;;;60.77;4.17;;;;;;;;;;5073827;28;20467;-66
2022/08/10 05:55:24;;;;;;;59.87;3.90;;;;;;;;;;5073917;28;20538;-66
2022/08/10 05:57:52;;;;;;;61.27;4.97;;;;;;;;;;5073839;28;20450;-66
2022/08/10 06:00:23;;;;;;;59.30;4.27;;;;;;;;;;5073240;28;20796;-66
2022/08/10 06:02:51;;;;;;;59.07;4.27;;;;;;;;;;5073603;28;20542;-66
2022/08/10 06:05:21;;;;;;;60.60;4.50;;;;;;;;;;5073982;28;20794;-66
2022/08/10 06:07:50;;;;;;;58.97;3.57;;;;;;;;;;5073688;28;20844;-66
2022/08/10 06:10:18;;;;;;;58.57;3.20;;;;;;;;;;5073185;28;20447;-66
2022/08/10 06:12:47;;;;;;;59.97;4.60;;;;;;;;;;5073386;28;20450;-66
2022/08/10 06:15:15;;;;;;;59.87;4.07;;;;;;;;;;5073658;28;20451;-66
2022/08/10 06:17:43;;;;;;;61.17;3.87;;;;;;;;;;5073531;28;20442;-66
2022/08/10 06:20:10;;;;;;;59.17;3.83;;;;;;;;;;5073130;28;20458;-66
2022/08/10 06:22:39;;;;;;;58.80;3.27;;;;;;;;;;5073321;28;20885;-66
2022/08/10 06:25:07;;;;;;;59.20;3.63;;;;;;;;;;5073128;28;20448;-66
2022/08/10 06:27:35;;;;;;;59.00;3.87;;;;;;;;;;5072988;28;20475;-66
2022/08/10 06:30:02;;;;;;;59.47;4.10;;;;;;;;;;5072763;28;20451;-66
2022/08/10 06:32:30;;;;;;;59.07;4.10;;;;;;;;;;5073166;28;20915;-66
2022/08/10 06:34:59;;;;;;;59.07;3.57;;;;;;;;;;5073172;28;20443;-66
2022/08/10 06:37:27;;;;;;;59.07;3.90;;;;;;;;;;5072921;28;20454;-66
2022/08/10 06:39:56;;;;;;;59.40;3.93;;;;;;;;;;5072512;28;20451;-66
2022/08/10 06:42:27;;;;;;;60.07;3.70;;;;;;;;;;5072766;28;20550;-67
2022/08/10 06:44:57;;;;;;;59.70;3.90;;;;;;;;;;5073015;28;20449;-67
2022/08/10 06:47:26;;;;;;;58.87;3.40;;;;;;;;;;5072680;28;20579;-66
2022/08/10 06:49:56;;;;;;;59.20;4.10;;;;;;;;;;5072521;28;20904;-66
2022/08/10 06:52:23;;;;;;;58.93;3.33;;;;;;;;;;5072445;28;20475;-66
2022/08/10 06:54:52;;;;;;;59.27;3.40;;;;;;;;;;5072891;28;20838;-66
2022/08/10 06:57:21;;;;;;;58.73;3.20;;;;;;;;;;5072099;28;20455;-66
2022/08/10 06:59:51;;;;;;;58.70;3.40;;;;;;;;;;5072332;28;20454;-66
2022/08/10 07:02:21;;;;;;;58.80;3.20;;;;;;;;;;5072595;28;20466;-66
2022/08/10 07:04:52;;;;;;;60.57;4.27;;;;;;;;;;5072510;28;20455;-66
2022/08/10 07:07:21;;;;;;;58.20;3.20;;;;;;;;;;5072341;28;20451;-66
2022/08/10 07:09:48;;;;;;;60.30;4.33;;;;;;;;;;5072327;28;20814;-66
2022/08/10 07:12:16;;;;;;;59.50;3.37;;;;;;;;;;5072369;28;20468;-66
2022/08/10 07:14:46;;;;;;;59.57;3.50;;;;;;;;;;5072689;28;20443;-66
2022/08/10 07:17:14;;;;;;;59.00;3.27;;;;;;;;;;5072347;28;20451;-66
2022/08/10 07:19:42;;;;;;;58.90;3.33;;;;;;;;;;5071858;28;20532;-66
2022/08/10 07:22:10;;;;;;;58.90;3.73;;;;;;;;;;5072296;28;20472;-66
2022/08/10 07:24:39;;;;;;;58.87;3.10;;;;;;;;;;5072381;28;20546;-67
2022/08/10 07:27:07;;;;;;;58.10;3.30;;;;;;;;;;5072088;28;20448;-66
2022/08/10 07:29:35;;;;;;;57.97;2.70;;;;;;;;;;5071704;28;20491;-66
2022/08/10 07:32:04;;;;;;;58.67;3.13;;;;;;;;;;5072017;28;20560;-67
2022/08/10 07:34:32;;;;;;;58.57;3.07;;;;;;;;;;5072044;28;20516;-66
2022/08/10 07:37:01;;;;;;;58.87;3.20;;;;;;;;;;5072411;28;20527;-67
2022/08/10 07:39:30;;;;;;;58.80;2.93;;;;;;;;;;5071815;28;20446;-67
2022/08/10 07:41:58;;;;;;;58.80;3.30;;;;;;;;;;5071934;28;20462;-67
2022/08/10 07:44:27;;;;;;;59.33;3.00;;;;;;;;;;5071835;28;20841;-67
2022/08/10 07:46:56;;;;;;;60.77;3.57;;;;;;;;;;5071805;28;20961;-66
2022/08/10 07:49:27;;;;;;;59.70;3.17;;;;;;;;;;5071678;28;20490;-66
2022/08/10 07:51:55;;;;;;;58.57;3.20;;;;;;;;;;5071795;28;20567;-67
2022/08/10 07:54:23;;;;;;;57.90;3.10;;;;;;;;;;5071864;28;20620;-67
2022/08/10 07:56:52;;;;;;;59.77;3.30;;;;;;;;;;5071825;28;20450;-67
2022/08/10 07:59:23;;;;;;;59.27;3.40;;;;;;;;;;5071330;28;20452;-67
2022/08/10 08:01:52;;;;;;;58.57;2.83;;;;;;;;;;5071937;28;20470;-67
2022/08/10 08:04:20;;;;;;;58.70;3.40;;;;;;;;;;5071665;28;20957;-67
2022/08/10 08:06:49;;;;;;;58.77;3.00;;;;;;;;;;5071688;28;20454;-67
2022/08/10 08:09:16;;;;;;;57.73;2.53;;;;;;;;;;5073423;28;20482;-67
2022/08/10 08:11:44;;;;;;;57.83;2.70;;;;;;;;;;5075600;28;20466;-67
2022/08/10 08:14:12;;;;;;;57.80;2.97;;;;;;;;;;5075735;28;20483;-67
2022/08/10 08:16:42;;;;;;;58.50;3.20;;;;;;;;;;5075840;28;20447;-67
2022/08/10 08:19:09;;;;;;;58.37;2.80;;;;;;;;;;5075341;28;20439;-67
2022/08/10 08:21:37;;;;;;;58.30;2.90;;;;;;;;;;5075540;28;20475;-67
2022/08/10 08:24:07;;;;;;;62.77;3.67;;;;;;;;;;5075532;28;20542;-67
2022/08/10 08:26:35;;;;;;;58.50;2.70;;;;;;;;;;5075512;28;20462;-67
2022/08/10 08:29:03;;;;;;;58.23;2.80;;;;;;;;;;5075228;28;20483;-67
2022/08/10 08:31:30;;;;;;;58.20;2.70;;;;;;;;;;5075319;28;20470;-67
2022/08/10 08:33:58;;;;;;;58.40;2.67;;;;;;;;;;5075437;28;20447;-67
2022/08/10 08:36:25;;;;;;;59.07;3.50;;;;;;;;;;5075266;28;20446;-67
2022/08/10 08:38:53;;;;;;;58.37;2.70;;;;;;;;;;5075138;28;20833;-67
2022/08/10 08:41:33;;;;;;;58.53;3.17;;;;;;;;;;5075358;28;20820;-67
2022/08/10 08:44:04;;;;;;;58.37;3.07;;;;;;;;;;5075120;28;20455;-67
2022/08/10 08:46:49;;;;;;;58.37;3.10;;;;;;;;;;5075103;28;20453;-67
2022/08/10 08:49:34;;;;;;;58.57;2.70;;;;;;;;;;5074456;28;20562;-67
2022/08/10 08:52:08;;;;;;;58.60;2.50;;;;;;;;;;5064771;28;20485;-67
2022/08/10 08:54:43;;;;;;;58.17;2.80;;;;;;;;;;5075130;28;20445;-67
2022/08/10 08:57:20;;;;;;;58.80;2.93;;;;;;;;;;5074908;28;20446;-67
2022/08/10 08:59:55;;;;;;;58.40;2.93;;;;;;;;;;5074785;28;20760;-67
2022/08/10 09:02:30;;;;;;;58.07;2.50;;;;;;;;;;5074932;28;20467;-67
2022/08/10 09:05:05;;;;;;;57.93;2.73;;;;;;;;;;5074880;28;20442;-67
2022/08/10 09:07:47;;;;;;;57.87;2.67;;;;;;;;;;5074745;28;20452;-67
2022/08/10 09:10:18;;;;;;;58.20;2.77;;;;;;;;;;5072301;28;20459;-67
2022/08/10 09:12:49;;;;;;;60.07;3.10;;;;;;;;;;5074572;28;20451;-67
2022/08/10 09:15:21;;;;;;;59.00;2.60;;;;;;;;;;5074870;28;20931;-67
2022/08/10 09:17:53;;;;;;;58.60;2.97;;;;;;;;;;5074646;28;20828;-67
2022/08/10 09:20:24;;;;;;;57.80;2.13;;;;;;;;;;5073355;28;20443;-67
2022/08/10 09:22:56;;;;;;;58.07;2.40;;;;;;;;;;5074837;28;20449;-67
2022/08/10 09:25:25;;;;;;;58.20;2.93;;;;;;;;;;5074625;28;21030;-67
2022/08/10 09:28:00;;;;;;;57.97;2.50;;;;;;;;;;5074371;28;20443;-67
2022/08/10 09:30:31;;;;;;;65.20;3.40;;;;;;;;;;5074023;28;20454;-67
2022/08/10 09:33:01;;;;;;;57.97;2.40;;;;;;;;;;5074175;28;20451;-67
2022/08/10 09:35:34;;;;;;;58.00;2.80;;;;;;;;;;5074224;28;20443;-67
2022/08/10 09:38:07;;;;;;;57.90;2.43;;;;;;;;;;5074428;28;20451;-67
2022/08/10 09:40:40;;;;;;;57.97;2.20;;;;;;;;;;5073920;28;20481;-67
2022/08/10 09:43:11;;;;;;;57.97;2.40;;;;;;;;;;5073984;28;20455;-67
2022/08/10 09:45:43;;;;;;;57.80;2.23;;;;;;;;;;5074289;28;20892;-67
2022/08/10 09:48:14;;;;;;;57.67;2.37;;;;;;;;;;5074019;28;20538;-67
2022/08/10 09:50:50;;;;;;;58.20;2.40;;;;;;;;;;5073629;28;20502;-67
2022/08/10 09:53:22;;;;;;;57.53;2.17;;;;;;;;;;5073774;28;20542;-67
2022/08/10 09:55:54;;;;;;;58.10;2.70;;;;;;;;;;5073774;28;20454;-67
2022/08/10 09:58:40;;;;;;;59.17;2.43;;;;;;;;;;5073873;28;20865;-67
2022/08/10 10:01:12;;;;;;;60.00;2.47;;;;;;;;;;5073621;28;20971;-67
2022/08/10 10:03:42;;;;;;;57.90;2.33;;;;;;;;;;5073756;28;20529;-67
2022/08/10 10:06:16;;;;;;;57.97;2.20;;;;;;;;;;5073607;28;20458;-67
2022/08/10 10:08:46;;;;;;;57.70;2.20;;;;;;;;;;5073449;28;20483;-67
2022/08/10 10:11:17;;;;;;;57.97;2.10;;;;;;;;;;5073527;28;20463;-67
2022/08/10 10:13:49;;;;;;;58.00;2.37;;;;;;;;;;5073390;28;21010;-67
2022/08/10 10:16:26;;;;;;;57.43;2.10;;;;;;;;;;5073479;28;20530;-67
2022/08/10 10:18:56;;;;;;;57.37;2.20;;;;;;;;;;5073030;28;20935;-68
2022/08/10 10:21:28;;;;;;;58.77;2.40;;;;;;;;;;5073708;28;20900;-66
2022/08/10 10:23:58;;;;;;;57.60;2.37;;;;;;;;;;5073502;28;20474;-66
2022/08/10 10:26:30;;;;;;;57.47;2.20;;;;;;;;;;5073231;28;20454;-66
2022/08/10 10:29:04;;;;;;;57.40;2.40;;;;;;;;;;5072913;28;20613;-66
2022/08/10 10:31:33;;;;;;;57.30;2.30;;;;;;;;;;5072617;28;20467;-66
2022/08/10 10:34:07;;;;;;;57.40;2.30;;;;;;;;;;5072454;28;20450;-66
2022/08/10 10:36:34;;;;;;;57.40;2.40;;;;;;;;;;5073140;28;20474;-66
2022/08/10 10:39:03;;;;;;;57.17;2.30;;;;;;;;;;5072737;28;20779;-66
2022/08/10 10:41:33;;;;;;;56.67;2.00;;;;;;;;;;5072781;28;20474;-66
2022/08/10 10:44:07;;;;;;;57.47;2.20;;;;;;;;;;5073121;28;20473;-66
2022/08/10 10:46:40;;;;;;;56.77;1.97;;;;;;;;;;5072791;28;20935;-66
2022/08/10 10:49:11;;;;;;;62.03;2.10;;;;;;;;;;5072351;28;21025;-66
2022/08/10 10:51:42;;;;;;;57.30;2.30;;;;;;;;;;5072581;28;20482;-66
2022/08/10 10:54:11;;;;;;;56.87;2.13;;;;;;;;;;5072566;28;20530;-66
2022/08/10 10:56:46;;;;;;;58.53;2.40;;;;;;;;;;5072589;28;20491;-66
2022/08/10 10:59:18;;;;;;;57.17;2.20;;;;;;;;;;5072653;28;20455;-66
2022/08/10 11:01:54;;;;;;;56.60;2.10;;;;;;;;;;5072545;28;20611;-66
2022/08/10 11:04:24;;;;;;;56.87;2.30;;;;;;;;;;5072579;28;20451;-67
2022/08/10 11:06:56;;;;;;;57.43;2.27;;;;;;;;;;5072239;28;20924;-66
2022/08/10 11:09:24;;;;;;;57.10;2.30;;;;;;;;;;5072081;28;20525;-66
2022/08/10 11:11:55;;;;;;;57.30;2.20;;;;;;;;;;5072152;28;20473;-66
2022/08/10 11:14:28;;;;;;;56.77;2.10;;;;;;;;;;5072251;28;20879;-66
2022/08/10 11:16:59;;;;;;;57.10;2.47;;;;;;;;;;5072181;28;20951;-66
2022/08/10 11:19:31;;;;;;;56.83;2.10;;;;;;;;;;5072119;28;20538;-66
2022/08/10 11:22:04;;;;;;;56.80;2.00;;;;;;;;;;5072226;28;20554;-66
2022/08/10 11:24:38;;;;;;;56.60;1.90;;;;;;;;;;5072205;28;20854;-66
2022/08/10 11:27:09;;;;;;;56.73;2.53;;;;;;;;;;5072103;28;20461;-66
2022/08/10 11:29:40;;;;;;;56.73;2.03;;;;;;;;;;5071481;28;20483;-66
2022/08/10 11:32:12;;;;;;;57.20;2.50;;;;;;;;;;5072134;28;20478;-66
2022/08/10 11:34:47;;;;;;;56.83;2.13;;;;;;;;;;5072256;28;20447;-66
2022/08/10 11:37:19;;;;;;;56.60;2.20;;;;;;;;;;5072474;28;20450;-66
2022/08/10 11:39:49;;;;;;;59.10;2.27;;;;;;;;;;5071680;28;20443;-66
2022/08/10 11:42:20;;;;;;;57.00;2.13;;;;;;;;;;5071825;28;20481;-66
2022/08/10 11:44:51;;;;;;;56.60;2.20;;;;;;;;;;5071607;28;20940;-66
2022/08/10 11:47:20;;;;;;;56.27;1.80;;;;;;;;;;5072178;28;20874;-66
2022/08/10 11:49:50;;;;;;;56.37;2.00;;;;;;;;;;5071517;28;20479;-66
2022/08/10 11:52:20;;;;;;;57.80;2.53;;;;;;;;;;5071554;28;20483;-66
2022/08/10 11:54:52;;;;;;;56.70;2.10;;;;;;;;;;5071950;28;20432;-66
2022/08/10 11:57:19;;;;;;;57.73;2.67;;;;;;;;;;5071928;28;20448;-66
2022/08/10 11:59:55;;;;;;;57.90;2.23;;;;;;;;;;5071379;28;20448;-66
2022/08/10 12:02:24;;;;;;;57.00;2.40;;;;;;;;;;5071728;28;20971;-66
2022/08/10 12:04:56;;;;;;;56.70;2.40;;;;;;;;;;5071751;28;20534;-66
2022/08/10 12:07:24;;;;;;;57.07;2.10;;;;;;;;;;5071859;28;20448;-66
2022/08/10 12:09:52;;;;;;;56.93;2.00;;;;;;;;;;5071269;28;21009;-66
2022/08/10 12:12:19;;;;;;;56.73;2.20;;;;;;;;;;5071946;28;20578;-66
2022/08/10 12:14:54;;;;;;;56.77;2.30;;;;;;;;;;5071726;28;20443;-66
2022/08/10 12:17:24;;;;;;;56.67;2.17;;;;;;;;;;5071580;28;20486;-66
2022/08/10 12:19:56;;;;;;;56.60;1.87;;;;;;;;;;5071264;28;20497;-66
2022/08/10 12:22:25;;;;;;;57.20;2.30;;;;;;;;;;5071651;28;20470;-66
2022/08/10 12:24:54;;;;;;;57.17;2.37;;;;;;;;;;5071658;28;20585;-66
2022/08/10 12:27:22;;;;;;;57.20;2.13;;;;;;;;;;5071443;28;20447;-66
2022/08/10 12:29:54;;;;;;;58.50;2.00;;;;;;;;;;5071054;28;20475;-66
2022/08/10 12:32:27;;;;;;;56.87;2.20;;;;;;;;;;5071585;28;20467;-66
2022/08/10 12:34:59;;;;;;;56.80;1.97;;;;;;;;;;5071626;28;20535;-66
2022/08/10 12:37:30;;;;;;;56.37;2.17;;;;;;;;;;5071515;28;20453;-66
2022/08/10 12:40:03;;;;;;;56.60;2.20;;;;;;;;;;5071195;28;20447;-66
2022/08/10 12:42:34;;;;;;;56.70;2.20;;;;;;;;;;5071220;28;20549;-66
2022/08/10 12:45:03;;;;;;;57.20;2.30;;;;;;;;;;5071437;28;20501;-66
2022/08/10 12:47:38;;;;;;;56.73;2.00;;;;;;;;;;5071445;28;20551;-66
2022/08/10 12:50:14;;;;;;;56.60;2.07;;;;;;;;;;5070867;28;20477;-66
2022/08/10 12:52:43;;;;;;;60.10;2.30;;;;;;;;;;5071033;28;20570;-66
2022/08/10 12:55:12;;;;;;;57.53;2.10;;;;;;;;;;5071536;28;20935;-66
2022/08/10 12:57:39;;;;;;;56.80;1.97;;;;;;;;;;5075167;28;20529;-66
2022/08/10 13:00:07;;;;;;;56.70;2.43;;;;;;;;;;5074719;28;20439;-66
2022/08/10 13:02:36;;;;;;;59.20;2.30;;;;;;;;;;5074714;28;20466;-66
2022/08/10 13:05:07;;;;;;;56.80;1.80;;;;;;;;;;5074762;28;21033;-66
2022/08/10 13:07:36;;;;;;;56.70;2.20;;;;;;;;;;5074598;28;20450;-66
2022/08/10 13:10:04;;;;;;;56.37;1.90;;;;;;;;;;5074618;28;20479;-66
2022/08/10 13:12:32;;;;;;;56.67;2.13;;;;;;;;;;5074743;28;20470;-66
2022/08/10 13:15:04;;;;;;;55.90;2.20;;;;;;;;;;5074646;28;20996;-66
2022/08/10 13:17:32;;;;;;;57.30;2.57;;;;;;;;;;5074663;28;20444;-66
2022/08/10 13:20:02;;;;;;;56.60;2.37;;;;;;;;;;5074152;28;20446;-66
2022/08/10 13:22:31;;;;;;;56.50;2.07;;;;;;;;;;5074644;28;20525;-66
2022/08/10 13:25:01;;;;;;;57.43;2.70;;;;;;;;;;5074387;28;20995;-66
2022/08/10 13:27:30;;;;;;;57.17;2.20;;;;;;;;;;5074392;28;20439;-66
2022/08/10 13:29:59;;;;;;;56.57;2.30;;;;;;;;;;5074005;28;20488;-66
2022/08/10 13:32:27;;;;;;;56.60;2.03;;;;;;;;;;5074151;28;20471;-66
2022/08/10 13:34:55;;;;;;;57.20;1.80;;;;;;;;;;5074440;28;20449;-66
2022/08/10 13:37:24;;;;;;;56.80;2.10;;;;;;;;;;5074273;28;20541;-66
2022/08/10 13:39:53;;;;;;;56.77;2.00;;;;;;;;;;5074007;28;20454;-66
2022/08/10 13:42:22;;;;;;;56.70;2.20;;;;;;;;;;5074134;28;20463;-66
2022/08/10 13:44:50;;;;;;;56.47;2.20;;;;;;;;;;5073987;28;20543;-66
2022/08/10 13:47:18;;;;;;;56.37;1.90;;;;;;;;;;5074207;28;20451;-66
2022/08/10 13:49:47;;;;;;;56.90;2.33;;;;;;;;;;5073777;28;20874;-66
2022/08/10 13:52:16;;;;;;;58.10;2.53;;;;;;;;;;5073705;28;21018;-66
2022/08/10 13:54:45;;;;;;;56.73;2.00;;;;;;;;;;5074006;28;20452;-66
2022/08/10 13:57:13;;;;;;;56.50;1.90;;;;;;;;;;5073870;28;20451;-66
2022/08/10 13:59:42;;;;;;;56.60;2.20;;;;;;;;;;5073402;28;20440;-66
2022/08/10 14:02:12;;;;;;;56.53;2.07;;;;;;;;;;5073879;28;20467;-66
2022/08/10 14:04:44;;;;;;;56.67;2.00;;;;;;;;;;5073843;28;20458;-66
2022/08/10 14:07:12;;;;;;;56.43;1.80;;;;;;;;;;5073537;28;20458;-66
2022/08/10 14:09:40;;;;;;;56.57;2.10;;;;;;;;;;5073302;28;20883;-66
2022/08/10 14:12:08;;;;;;;58.50;2.10;;;;;;;;;;5073429;28;20526;-66
2022/08/10 14:14:36;;;;;;;56.53;2.00;;;;;;;;;;5073729;28;20443;-66
2022/08/10 14:17:04;;;;;;;56.47;2.30;;;;;;;;;;5073567;28;20448;-66
2022/08/10 14:19:32;;;;;;;59.10;2.10;;;;;;;;;;5073184;28;20820;-66
2022/08/10 14:21:59;;;;;;;56.60;1.83;;;;;;;;;;5073266;28;20491;-66
2022/08/10 14:24:27;;;;;;;56.63;2.00;;;;;;;;;;5073293;28;20522;-66
2022/08/10 14:26:59;;;;;;;56.30;2.00;;;;;;;;;;5073094;28;20448;-66
2022/08/10 14:29:26;;;;;;;56.50;1.87;;;;;;;;;;5072651;28;20479;-66
2022/08/10 14:31:54;;;;;;;57.73;2.30;;;;;;;;;;5073236;28;20474;-66
2022/08/10 14:34:27;;;;;;;56.87;2.33;;;;;;;;;;5073090;28;20447;-66
2022/08/10 14:36:55;;;;;;;56.33;2.20;;;;;;;;;;5073012;28;20449;-66
2022/08/10 14:39:24;;;;;;;56.60;1.90;;;;;;;;;;5072740;28;20451;-66
2022/08/10 14:41:52;;;;;;;56.47;1.83;;;;;;;;;;5072808;28;20983;-66
2022/08/10 14:44:19;;;;;;;56.47;2.17;;;;;;;;;;5072865;28;20457;-66
2022/08/10 14:46:48;;;;;;;56.70;2.37;;;;;;;;;;5072885;28;20447;-66